Time,TemperatureF,DewpointF,PressureIn,WindDirection,WindDirectionDegrees,WindSpeedMPH,WindSpeedGustMPH,Humidity,HourlyPrecipIn,Conditions,Clouds,dailyrainin,SoftwareType,DateUTC
2013-11-25 00:00:00,54.3,47.9,30.16,NW,321,3.0,3.0,79,0.00,,,0.00,Wunderground v.1.15,2013-11-25 07:00:00,
2013-11-25 00:09:00,54.1,47.7,30.16,NW,306,4.0,4.0,79,0.00,,,0.00,Wunderground v.1.15,2013-11-25 07:09:00,
2013-11-25 00:19:00,54.0,47.6,30.16,NNW,328,4.0,4.0,79,0.00,,,0.00,Wunderground v.1.15,2013-11-25 07:19:00,
2013-11-25 00:25:00,53.8,47.4,30.16,NW,312,4.0,4.0,79,0.00,,,0.00,Wunderground v.1.15,2013-11-25 07:25:00,
2013-11-25 00:35:00,53.2,47.5,30.16,NW,314,4.0,4.0,81,0.00,,,0.00,Wunderground v.1.15,2013-11-25 07:35:00,
2013-11-25 00:45:00,52.8,47.5,30.16,NW,318,4.0,4.0,82,0.00,,,0.00,Wunderground v.1.15,2013-11-25 07:45:00,
2013-11-25 00:54:00,52.5,47.2,30.16,NW,319,3.0,4.0,82,0.00,,,0.00,Wunderground v.1.15,2013-11-25 07:54:00,
2013-11-25 01:00:00,52.4,47.4,30.16,NW,311,3.0,3.0,83,0.00,,,0.00,Wunderground v.1.15,2013-11-25 08:00:00,
2013-11-25 01:10:00,52.2,47.2,30.16,NW,326,2.0,2.0,83,0.00,,,0.00,Wunderground v.1.15,2013-11-25 08:10:00,
2013-11-25 01:20:00,51.8,47.1,30.16,NNW,347,1.0,1.0,84,0.00,,,0.00,Wunderground v.1.15,2013-11-25 08:20:00,
2013-11-25 01:29:00,51.4,46.7,30.16,NNW,336,0.0,1.0,84,0.00,,,0.00,Wunderground v.1.15,2013-11-25 08:29:00,
2013-11-25 01:34:00,51.4,46.7,30.16,North,356,1.0,1.0,84,0.00,,,0.00,Wunderground v.1.15,2013-11-25 08:34:00,
2013-11-25 01:39:00,51.4,46.7,30.16,NNW,328,1.0,1.0,84,0.00,,,0.00,Wunderground v.1.15,2013-11-25 08:39:00,
2013-11-25 01:45:00,51.7,46.7,30.16,NW,323,1.0,1.0,83,0.00,,,0.00,Wunderground v.1.15,2013-11-25 08:45:00,
2013-11-25 01:54:00,52.1,46.4,30.16,NNW,329,2.0,2.0,81,0.00,,,0.00,Wunderground v.1.15,2013-11-25 08:54:00,
2013-11-25 02:00:00,52.2,46.5,30.16,NW,316,1.0,1.0,81,0.00,,,0.00,Wunderground v.1.15,2013-11-25 09:00:00,
2013-11-25 02:10:00,52.4,46.4,30.16,NW,319,2.0,2.0,80,0.00,,,0.00,Wunderground v.1.15,2013-11-25 09:10:00,
2013-11-25 02:19:00,52.5,46.2,30.16,NW,315,3.0,3.0,79,0.00,,,0.00,Wunderground v.1.15,2013-11-25 09:19:00,
2013-11-25 02:25:00,52.4,46.1,30.16,NW,320,2.0,3.0,79,0.00,,,0.00,Wunderground v.1.15,2013-11-25 09:25:00,
2013-11-25 02:30:00,52.5,46.2,30.16,NW,326,2.0,2.0,79,0.00,,,0.00,Wunderground v.1.15,2013-11-25 09:30:00,
2013-11-25 02:35:00,52.5,45.8,30.16,NNW,328,1.0,2.0,78,0.00,,,0.00,Wunderground v.1.15,2013-11-25 09:35:00,
2013-11-25 02:45:00,52.0,45.7,30.16,NNW,335,0.0,1.0,79,0.00,,,0.00,Wunderground v.1.15,2013-11-25 09:45:00,
2013-11-25 02:50:00,51.9,45.9,30.16,NNW,335,0.0,0.0,80,0.00,,,0.00,Wunderground v.1.15,2013-11-25 09:50:00,
2013-11-25 03:00:00,50.8,45.5,30.16,SE,146,0.0,1.0,82,0.00,,,0.00,Wunderground v.1.15,2013-11-25 10:00:00,
2013-11-25 03:10:00,50.0,45.0,30.16,ESE,106,1.0,1.0,83,0.00,,,0.00,Wunderground v.1.15,2013-11-25 10:10:00,
2013-11-25 03:20:00,49.1,45.1,30.16,ESE,106,0.0,1.0,86,0.00,,,0.00,Wunderground v.1.15,2013-11-25 10:20:00,
2013-11-25 03:30:00,49.6,45.3,30.16,ENE,72,1.0,2.0,85,0.00,,,0.00,Wunderground v.1.15,2013-11-25 10:30:00,
2013-11-25 03:40:00,49.6,45.3,30.15,ENE,72,1.0,1.0,85,0.00,,,0.00,Wunderground v.1.15,2013-11-25 10:40:00,
2013-11-25 03:45:00,49.5,45.2,30.15,ENE,72,0.0,2.0,85,0.00,,,0.00,Wunderground v.1.15,2013-11-25 10:45:00,
2013-11-25 03:55:00,49.6,45.3,30.15,NW,316,0.0,2.0,85,0.00,,,0.00,Wunderground v.1.15,2013-11-25 10:55:00,
2013-11-25 04:00:00,50.4,45.1,30.15,NW,326,1.0,2.0,82,0.00,,,0.00,Wunderground v.1.15,2013-11-25 11:00:00,
2013-11-25 04:10:00,50.8,45.2,30.16,NW,322,1.0,1.0,81,0.00,,,0.00,Wunderground v.1.15,2013-11-25 11:10:00,
2013-11-25 04:20:00,50.7,45.1,30.15,WNW,290,1.0,1.0,81,0.00,,,0.00,Wunderground v.1.15,2013-11-25 11:20:00,
2013-11-25 04:25:00,50.5,44.9,30.15,WNW,292,0.0,1.0,81,0.00,,,0.00,Wunderground v.1.15,2013-11-25 11:25:00,
2013-11-25 04:34:00,49.9,44.6,30.16,WNW,291,0.0,0.0,82,0.00,,,0.00,Wunderground v.1.15,2013-11-25 11:34:00,
2013-11-25 04:40:00,49.3,44.4,30.15,SE,133,0.0,0.0,83,0.00,,,0.00,Wunderground v.1.15,2013-11-25 11:40:00,
2013-11-25 04:50:00,48.7,44.4,30.15,SE,132,0.0,0.0,85,0.00,,,0.00,Wunderground v.1.15,2013-11-25 11:50:00,
2013-11-25 05:00:00,49.3,44.7,30.15,SE,133,0.0,0.0,84,0.00,,,0.00,Wunderground v.1.15,2013-11-25 12:00:00,
2013-11-25 05:09:00,49.7,44.4,30.15,North,352,0.0,1.0,82,0.00,,,0.00,Wunderground v.1.15,2013-11-25 12:09:00,
2013-11-25 05:15:00,49.8,44.5,30.15,NNW,333,1.0,2.0,82,0.00,,,0.00,Wunderground v.1.15,2013-11-25 12:15:00,
2013-11-25 05:20:00,50.0,44.4,30.15,NNW,330,2.0,2.0,81,0.00,,,0.00,Wunderground v.1.15,2013-11-25 12:20:00,
2013-11-25 05:25:00,50.4,44.8,30.15,NNW,328,1.0,2.0,81,0.00,,,0.00,Wunderground v.1.15,2013-11-25 12:25:00,
2013-11-25 05:35:00,50.6,44.7,30.15,NNW,328,2.0,2.0,80,0.00,,,0.00,Wunderground v.1.15,2013-11-25 12:35:00,
2013-11-25 05:45:00,50.4,44.5,30.15,NW,319,1.0,2.0,80,0.00,,,0.00,Wunderground v.1.15,2013-11-25 12:45:00,
2013-11-25 05:54:00,50.8,44.5,30.16,NW,326,1.0,1.0,79,0.00,,,0.00,Wunderground v.1.15,2013-11-25 12:54:00,
2013-11-25 06:00:00,51.0,44.4,30.16,NNW,330,1.0,1.0,78,0.00,,,0.00,Wunderground v.1.15,2013-11-25 13:00:00,
2013-11-25 06:10:00,50.8,44.2,30.16,North,358,0.0,0.0,78,0.00,,,0.00,Wunderground v.1.15,2013-11-25 13:10:00,
2013-11-25 06:20:00,49.8,43.5,30.16,NE,55,1.0,2.0,79,0.00,,,0.00,Wunderground v.1.15,2013-11-25 13:20:00,
2013-11-25 06:30:00,48.7,44.1,30.16,NE,55,0.0,0.0,84,0.00,,,0.00,Wunderground v.1.15,2013-11-25 13:30:00,
2013-11-25 06:39:00,48.9,44.6,30.16,NNE,12,0.0,0.0,85,0.00,,,0.00,Wunderground v.1.15,2013-11-25 13:39:00,
2013-11-25 06:45:00,49.9,44.3,30.16,NNW,337,0.0,1.0,81,0.00,,,0.00,Wunderground v.1.15,2013-11-25 13:45:00,
2013-11-25 06:50:00,50.2,44.3,30.16,North,10,1.0,1.0,80,0.00,,,0.00,Wunderground v.1.15,2013-11-25 13:50:00,
2013-11-25 07:00:00,49.9,44.3,30.17,North,356,1.0,1.0,81,0.00,,,0.00,Wunderground v.1.15,2013-11-25 14:00:00,
2013-11-25 07:10:00,49.9,44.0,30.17,North,351,1.0,1.0,80,0.00,,,0.00,Wunderground v.1.15,2013-11-25 14:10:00,
2013-11-25 07:20:00,50.5,44.2,30.18,North,350,2.0,2.0,79,0.00,,,0.00,Wunderground v.1.15,2013-11-25 14:20:00,
2013-11-25 07:29:00,50.7,44.4,30.18,NW,314,2.0,2.0,79,0.00,,,0.00,Wunderground v.1.15,2013-11-25 14:29:00,
2013-11-25 07:34:00,50.7,44.4,30.18,NW,309,2.0,2.0,79,0.00,,,0.00,Wunderground v.1.15,2013-11-25 14:34:00,
2013-11-25 07:40:00,50.7,44.4,30.18,NW,305,2.0,3.0,79,0.00,,,0.00,Wunderground v.1.15,2013-11-25 14:40:00,
2013-11-25 07:45:00,50.9,44.6,30.19,WNW,293,2.0,3.0,79,0.00,,,0.00,Wunderground v.1.15,2013-11-25 14:45:00,
2013-11-25 07:55:00,51.7,44.7,30.19,WNW,288,2.0,3.0,77,0.00,,,0.00,Wunderground v.1.15,2013-11-25 14:55:00,
2013-11-25 08:00:00,52.0,44.7,30.19,NW,304,3.0,4.0,76,0.00,,,0.00,Wunderground v.1.15,2013-11-25 15:00:00,
2013-11-25 08:10:00,52.2,44.5,30.20,NW,323,2.0,2.0,75,0.00,,,0.00,Wunderground v.1.15,2013-11-25 15:10:00,
2013-11-25 08:20:00,52.3,45.3,30.19,NW,315,1.0,1.0,77,0.00,,,0.00,Wunderground v.1.15,2013-11-25 15:20:00,
2013-11-25 08:29:00,53.0,45.6,30.20,NW,317,2.0,2.0,76,0.00,,,0.00,Wunderground v.1.15,2013-11-25 15:29:00,
2013-11-25 08:35:00,53.7,45.6,30.20,NW,326,1.0,2.0,74,0.00,,,0.00,Wunderground v.1.15,2013-11-25 15:35:00,
2013-11-25 08:40:00,54.4,45.6,30.20,North,358,1.0,1.0,72,0.00,,,0.00,Wunderground v.1.15,2013-11-25 15:40:00,
2013-11-25 08:50:00,55.4,46.2,30.20,NNE,20,1.0,1.0,71,0.00,,,0.00,Wunderground v.1.15,2013-11-25 15:50:00,
2013-11-25 09:00:00,56.6,45.8,30.21,NNW,338,3.0,3.0,67,0.00,,,0.00,Wunderground v.1.15,2013-11-25 16:00:00,
2013-11-25 09:09:00,57.3,46.0,30.21,NNW,330,3.0,5.0,66,0.00,,,0.00,Wunderground v.1.15,2013-11-25 16:09:00,
2013-11-25 09:14:00,57.7,46.0,30.21,NNW,342,3.0,5.0,65,0.00,,,0.00,Wunderground v.1.15,2013-11-25 16:14:00,
2013-11-25 09:20:00,58.0,45.9,30.21,NNW,330,3.0,3.0,64,0.00,,,0.00,Wunderground v.1.15,2013-11-25 16:20:00,
2013-11-25 09:25:00,58.4,46.7,30.21,NW,311,3.0,4.0,65,0.00,,,0.00,Wunderground v.1.15,2013-11-25 16:25:00,
2013-11-25 09:34:00,59.0,46.0,30.21,NW,323,4.0,5.0,62,0.00,,,0.00,Wunderground v.1.15,2013-11-25 16:34:00,
2013-11-25 09:40:00,59.1,45.7,30.21,NNW,335,4.0,6.0,61,0.00,,,0.00,Wunderground v.1.15,2013-11-25 16:40:00,
2013-11-25 09:50:00,59.4,45.9,30.21,North,4,5.0,5.0,61,0.00,,,0.00,Wunderground v.1.15,2013-11-25 16:50:00,
2013-11-25 10:00:00,59.5,45.2,30.22,NW,309,5.0,5.0,59,0.00,,,0.00,Wunderground v.1.15,2013-11-25 17:00:00,
2013-11-25 10:10:00,59.7,45.8,30.22,NNW,338,4.0,5.0,60,0.00,,,0.00,Wunderground v.1.15,2013-11-25 17:10:00,
2013-11-25 10:19:00,60.1,45.7,30.22,NNW,333,4.0,4.0,59,0.00,,,0.00,Wunderground v.1.15,2013-11-25 17:19:00,
2013-11-25 10:25:00,60.3,45.9,30.22,WNW,295,5.0,5.0,59,0.00,,,0.00,Wunderground v.1.15,2013-11-25 17:25:00,
2013-11-25 10:30:00,60.6,46.2,30.22,North,350,5.0,5.0,59,0.00,,,0.00,Wunderground v.1.15,2013-11-25 17:30:00,
2013-11-25 10:39:00,61.2,46.3,30.22,NW,315,5.0,5.0,58,0.00,,,0.00,Wunderground v.1.15,2013-11-25 17:39:00,
2013-11-25 10:45:00,61.4,45.6,30.22,NNW,345,6.0,6.0,56,0.00,,,0.00,Wunderground v.1.15,2013-11-25 17:45:00,
2013-11-25 10:55:00,61.8,45.9,30.22,NNW,342,6.0,6.0,56,0.00,,,0.00,Wunderground v.1.15,2013-11-25 17:55:00,
2013-11-25 11:00:00,61.8,45.5,30.21,NNW,329,6.0,6.0,55,0.00,,,0.00,Wunderground v.1.15,2013-11-25 18:00:00,
2013-11-25 11:10:00,62.4,46.0,30.21,NNE,23,5.0,6.0,55,0.00,,,0.00,Wunderground v.1.15,2013-11-25 18:10:00,
2013-11-25 11:20:00,62.7,45.8,30.21,NNE,32,5.0,5.0,54,0.00,,,0.00,Wunderground v.1.15,2013-11-25 18:20:00,
2013-11-25 11:30:00,63.0,45.6,30.21,NW,316,5.0,5.0,53,0.00,,,0.00,Wunderground v.1.15,2013-11-25 18:30:00,
2013-11-25 11:35:00,63.5,46.6,30.21,NNW,342,4.0,4.0,54,0.00,,,0.00,Wunderground v.1.15,2013-11-25 18:35:00,
2013-11-25 11:40:00,64.0,46.0,30.21,NE,38,4.0,6.0,52,0.00,,,0.00,Wunderground v.1.15,2013-11-25 18:40:00,
2013-11-25 11:50:00,64.0,46.0,30.20,NW,323,3.0,4.0,52,0.00,,,0.00,Wunderground v.1.15,2013-11-25 18:50:00,
2013-11-25 12:00:00,64.8,45.7,30.20,NNW,335,3.0,3.0,50,0.00,,,0.00,Wunderground v.1.15,2013-11-25 19:00:00,
2013-11-25 12:09:00,65.2,46.6,30.19,NW,319,3.0,5.0,51,0.00,,,0.00,Wunderground v.1.15,2013-11-25 19:09:00,
2013-11-25 12:20:00,65.8,45.6,30.19,NW,317,5.0,7.0,48,0.00,,,0.00,Wunderground v.1.15,2013-11-25 19:20:00,
2013-11-25 12:25:00,65.8,45.0,30.19,WNW,292,5.0,9.0,47,0.00,,,0.00,Wunderground v.1.15,2013-11-25 19:25:00,
2013-11-25 12:35:00,66.1,44.1,30.18,NNW,345,6.0,7.0,45,0.00,,,0.00,Wunderground v.1.15,2013-11-25 19:35:00,
2013-11-25 12:40:00,66.3,44.3,30.18,NNW,338,6.0,9.0,45,0.00,,,0.00,Wunderground v.1.15,2013-11-25 19:40:00,
2013-11-25 12:50:00,66.3,44.3,30.18,NW,304,6.0,7.0,45,0.00,,,0.00,Wunderground v.1.15,2013-11-25 19:50:00,
2013-11-25 13:00:00,66.7,44.7,30.17,NW,322,5.0,5.0,45,0.00,,,0.00,Wunderground v.1.15,2013-11-25 20:00:00,
2013-11-25 13:09:00,67.0,43.8,30.17,NNE,23,5.0,9.0,43,0.00,,,0.00,Wunderground v.1.15,2013-11-25 20:09:00,
2013-11-25 13:15:00,67.1,43.8,30.16,NNW,328,7.0,9.0,43,0.00,,,0.00,Wunderground v.1.15,2013-11-25 20:15:00,
2013-11-25 13:25:00,67.2,43.9,30.16,NNW,329,6.0,9.0,43,0.00,,,0.00,Wunderground v.1.15,2013-11-25 20:25:00,
2013-11-25 13:35:00,67.5,43.6,30.15,NNW,338,5.0,8.0,42,0.00,,,0.00,Wunderground v.1.15,2013-11-25 20:35:00,
2013-11-25 13:45:00,67.8,43.2,30.15,NE,39,7.0,7.0,41,0.00,,,0.00,Wunderground v.1.15,2013-11-25 20:45:00,
2013-11-25 13:54:00,68.2,43.6,30.15,NE,34,6.0,8.0,41,0.00,,,0.00,Wunderground v.1.15,2013-11-25 20:54:00,
2013-11-25 14:00:00,68.5,44.5,30.15,NNW,338,5.0,5.0,42,0.00,,,0.00,Wunderground v.1.15,2013-11-25 21:00:00,
2013-11-25 14:10:00,68.4,43.1,30.14,NNW,330,6.0,10.0,40,0.00,,,0.00,Wunderground v.1.15,2013-11-25 21:10:00,
2013-11-25 14:19:00,68.6,43.3,30.14,NNW,329,6.0,6.0,40,0.00,,,0.00,Wunderground v.1.15,2013-11-25 21:19:00,
2013-11-25 14:24:00,68.6,43.3,30.14,NNE,13,6.0,7.0,40,0.00,,,0.00,Wunderground v.1.15,2013-11-25 21:24:00,
2013-11-25 14:30:00,68.8,44.8,30.14,NW,323,5.0,5.0,42,0.00,,,0.00,Wunderground v.1.15,2013-11-25 21:30:00,
2013-11-25 14:35:00,68.9,44.9,30.14,NNE,25,5.0,5.0,42,0.00,,,0.00,Wunderground v.1.15,2013-11-25 21:35:00,
2013-11-25 14:45:00,68.9,44.2,30.14,NNW,330,6.0,7.0,41,0.00,,,0.00,Wunderground v.1.15,2013-11-25 21:45:00,
2013-11-25 14:55:00,68.9,42.9,30.14,North,349,6.0,7.0,39,0.00,,,0.00,Wunderground v.1.15,2013-11-25 21:55:00,
2013-11-25 15:00:00,68.9,42.9,30.14,NNW,343,6.0,8.0,39,0.00,,,0.00,Wunderground v.1.15,2013-11-25 22:00:00,
2013-11-25 15:10:00,68.8,42.8,30.14,NNW,345,8.0,8.0,39,0.00,,,0.00,Wunderground v.1.15,2013-11-25 22:10:00,
2013-11-25 15:19:00,68.9,42.2,30.14,NW,325,8.0,8.0,38,0.00,,,0.00,Wunderground v.1.15,2013-11-25 22:19:00,
2013-11-25 15:29:00,69.0,42.3,30.14,NNW,337,8.0,11.0,38,0.00,,,0.00,Wunderground v.1.15,2013-11-25 22:29:00,
2013-11-25 15:35:00,69.1,43.1,30.14,NNE,17,8.0,11.0,39,0.00,,,0.00,Wunderground v.1.15,2013-11-25 22:35:00,
2013-11-25 15:45:00,68.7,42.7,30.13,NNE,31,9.0,9.0,39,0.00,,,0.00,Wunderground v.1.15,2013-11-25 22:45:00,
2013-11-25 15:55:00,68.5,43.2,30.14,North,4,8.0,10.0,40,0.00,,,0.00,Wunderground v.1.15,2013-11-25 22:55:00,
2013-11-25 16:00:00,68.3,42.4,30.13,NNW,335,8.0,8.0,39,0.00,,,0.00,Wunderground v.1.15,2013-11-25 23:00:00,
2013-11-25 16:10:00,68.5,43.2,30.13,NNW,348,6.0,7.0,40,0.00,,,0.00,Wunderground v.1.15,2013-11-25 23:10:00,
2013-11-25 16:15:00,68.5,43.9,30.14,North,353,6.0,7.0,41,0.00,,,0.00,Wunderground v.1.15,2013-11-25 23:15:00,
2013-11-25 16:25:00,68.3,43.0,30.14,North,6,7.0,9.0,40,0.00,,,0.00,Wunderground v.1.15,2013-11-25 23:25:00,
2013-11-25 16:30:00,68.1,42.9,30.14,NNE,21,7.0,7.0,40,0.00,,,0.00,Wunderground v.1.15,2013-11-25 23:30:00,
2013-11-25 16:35:00,68.1,42.9,30.14,NW,321,7.0,9.0,40,0.00,,,0.00,Wunderground v.1.15,2013-11-25 23:35:00,
2013-11-25 16:40:00,67.9,43.3,30.14,NNW,338,6.0,8.0,41,0.00,,,0.00,Wunderground v.1.15,2013-11-25 23:40:00,
2013-11-25 16:49:00,67.7,43.8,30.14,North,8,5.0,5.0,42,0.00,,,0.00,Wunderground v.1.15,2013-11-25 23:49:00,
2013-11-25 16:55:00,67.6,43.7,30.14,NNE,19,6.0,6.0,42,0.00,,,0.00,Wunderground v.1.15,2013-11-25 23:55:00,
2013-11-25 17:00:00,67.5,44.2,30.14,NNW,334,4.0,7.0,43,0.00,,,0.00,Wunderground v.1.15,2013-11-26 00:00:00,
2013-11-25 17:10:00,67.3,43.4,30.14,NNW,343,6.0,6.0,42,0.00,,,0.00,Wunderground v.1.15,2013-11-26 00:10:00,
2013-11-25 17:20:00,66.8,43.6,30.14,NNW,340,4.0,4.0,43,0.00,,,0.00,Wunderground v.1.15,2013-11-26 00:20:00,
2013-11-25 17:25:00,66.3,43.7,30.14,NNW,339,4.0,4.0,44,0.00,,,0.00,Wunderground v.1.15,2013-11-26 00:25:00,
2013-11-25 17:35:00,65.7,43.8,30.14,North,1,3.0,3.0,45,0.00,,,0.00,Wunderground v.1.15,2013-11-26 00:35:00,
2013-11-25 17:40:00,65.5,43.6,30.14,North,355,3.0,3.0,45,0.00,,,0.00,Wunderground v.1.15,2013-11-26 00:40:00,
2013-11-25 17:45:00,65.2,43.9,30.14,NNW,332,3.0,4.0,46,0.00,,,0.00,Wunderground v.1.15,2013-11-26 00:45:00,
2013-11-25 17:55:00,64.8,44.1,30.14,NNW,347,3.0,3.0,47,0.00,,,0.00,Wunderground v.1.15,2013-11-26 00:55:00,
2013-11-25 18:00:00,64.6,44.5,30.14,NNW,329,3.0,3.0,48,0.00,,,0.00,Wunderground v.1.15,2013-11-26 01:00:00,
2013-11-25 18:10:00,64.2,44.6,30.15,NNW,340,2.0,2.0,49,0.00,,,0.00,Wunderground v.1.15,2013-11-26 01:10:00,
2013-11-25 18:19:00,63.7,45.2,30.15,North,356,2.0,2.0,51,0.00,,,0.00,Wunderground v.1.15,2013-11-26 01:19:00,
2013-11-25 18:24:00,63.6,45.1,30.15,NW,319,2.0,2.0,51,0.00,,,0.00,Wunderground v.1.15,2013-11-26 01:24:00,
2013-11-25 18:30:00,63.3,45.4,30.15,NW,321,2.0,2.0,52,0.00,,,0.00,Wunderground v.1.15,2013-11-26 01:30:00,
2013-11-25 18:40:00,62.7,46.3,30.15,NW,314,2.0,2.0,55,0.00,,,0.00,Wunderground v.1.15,2013-11-26 01:40:00,
2013-11-25 18:45:00,62.4,46.0,30.15,NW,316,2.0,2.0,55,0.00,,,0.00,Wunderground v.1.15,2013-11-26 01:45:00,
2013-11-25 18:55:00,62.0,46.6,30.16,NW,316,3.0,4.0,57,0.00,,,0.00,Wunderground v.1.15,2013-11-26 01:55:00,
2013-11-25 19:00:00,61.8,46.4,30.15,NW,316,3.0,3.0,57,0.00,,,0.00,Wunderground v.1.15,2013-11-26 02:00:00,
2013-11-25 19:10:00,61.5,46.6,30.16,NW,323,2.0,3.0,58,0.00,,,0.00,Wunderground v.1.15,2013-11-26 02:10:00,
2013-11-25 19:19:00,61.8,46.4,30.16,NW,317,2.0,3.0,57,0.00,,,0.00,Wunderground v.1.15,2013-11-26 02:19:00,
2013-11-25 19:29:00,61.5,47.0,30.16,WNW,288,2.0,2.0,59,0.00,,,0.00,Wunderground v.1.15,2013-11-26 02:29:00,
2013-11-25 19:35:00,60.9,47.4,30.16,WNW,292,2.0,2.0,61,0.00,,,0.00,Wunderground v.1.15,2013-11-26 02:35:00,
2013-11-25 19:40:00,60.7,47.6,30.16,WNW,294,2.0,3.0,62,0.00,,,0.00,Wunderground v.1.15,2013-11-26 02:40:00,
2013-11-25 19:50:00,60.5,47.0,30.16,NW,316,2.0,3.0,61,0.00,,,0.00,Wunderground v.1.15,2013-11-26 02:50:00,
2013-11-25 20:00:00,60.0,47.4,30.17,NW,319,3.0,3.0,63,0.00,,,0.00,Wunderground v.1.15,2013-11-26 03:00:00,
2013-11-25 20:10:00,59.6,47.8,30.17,NW,313,2.0,2.0,65,0.00,,,0.00,Wunderground v.1.15,2013-11-26 03:10:00,
2013-11-25 20:19:00,59.1,48.1,30.17,NW,319,3.0,3.0,67,0.00,,,0.00,Wunderground v.1.15,2013-11-26 03:19:00,
2013-11-25 20:25:00,58.9,48.0,30.17,NW,314,3.0,4.0,67,0.00,,,0.00,Wunderground v.1.15,2013-11-26 03:25:00,
2013-11-25 20:34:00,58.6,48.1,30.17,NW,319,4.0,5.0,68,0.00,,,0.00,Wunderground v.1.15,2013-11-26 03:34:00,
2013-11-25 20:40:00,58.5,48.0,30.17,NW,319,4.0,5.0,68,0.00,,,0.00,Wunderground v.1.15,2013-11-26 03:40:00,
2013-11-25 20:45:00,58.4,48.3,30.17,NNW,328,5.0,5.0,69,0.00,,,0.00,Wunderground v.1.15,2013-11-26 03:45:00,
2013-11-25 20:50:00,58.3,48.2,30.17,NW,312,4.0,4.0,69,0.00,,,0.00,Wunderground v.1.15,2013-11-26 03:50:00,
2013-11-25 21:00:00,58.0,47.9,30.17,NW,316,3.0,3.0,69,0.00,,,0.00,Wunderground v.1.15,2013-11-26 04:00:00,
2013-11-25 21:10:00,57.7,48.0,30.17,NW,313,4.0,5.0,70,0.00,,,0.00,Wunderground v.1.15,2013-11-26 04:10:00,
2013-11-25 21:20:00,57.6,47.9,30.18,NW,316,4.0,4.0,70,0.00,,,0.00,Wunderground v.1.15,2013-11-26 04:20:00,
2013-11-25 21:29:00,57.3,48.3,30.17,NW,314,4.0,4.0,72,0.00,,,0.00,Wunderground v.1.15,2013-11-26 04:29:00,
2013-11-25 21:35:00,57.3,48.0,30.17,NW,307,4.0,4.0,71,0.00,,,0.00,Wunderground v.1.15,2013-11-26 04:35:00,
2013-11-25 21:40:00,57.9,46.6,30.18,NW,322,3.0,5.0,66,0.00,,,0.00,Wunderground v.1.15,2013-11-26 04:40:00,
2013-11-25 21:45:00,58.5,48.0,30.18,WNW,300,3.0,5.0,68,0.00,,,0.00,Wunderground v.1.15,2013-11-26 04:45:00,
2013-11-25 21:55:00,57.6,47.9,30.18,WNW,288,4.0,4.0,70,0.00,,,0.00,Wunderground v.1.15,2013-11-26 04:55:00,
2013-11-25 22:00:00,56.9,48.0,30.18,WNW,303,4.0,4.0,72,0.00,,,0.00,Wunderground v.1.15,2013-11-26 05:00:00,
2013-11-25 22:05:00,56.5,48.3,30.18,NW,307,5.0,6.0,74,0.00,,,0.00,Wunderground v.1.15,2013-11-26 05:05:00,
2013-11-25 22:10:00,56.2,48.0,30.18,NW,312,5.0,5.0,74,0.00,,,0.00,Wunderground v.1.15,2013-11-26 05:10:00,
2013-11-25 22:15:00,56.2,48.0,30.18,NW,312,5.0,5.0,74,0.00,,,0.00,Wunderground v.1.15,2013-11-26 05:15:00,
2013-11-25 22:20:00,56.3,47.8,30.18,NW,313,5.0,5.0,73,0.00,,,0.00,Wunderground v.1.15,2013-11-26 05:20:00,
2013-11-25 22:30:00,56.7,47.4,30.19,NW,311,4.0,4.0,71,0.00,,,0.00,Wunderground v.1.15,2013-11-26 05:30:00,
2013-11-25 22:34:00,56.7,48.5,30.19,SW,216,3.0,4.0,74,0.00,,,0.00,Wunderground v.1.15,2013-11-26 05:34:00,
2013-11-25 22:39:00,55.2,47.1,30.19,SSE,154,1.0,1.0,74,0.00,,,0.00,Wunderground v.1.15,2013-11-26 05:39:00,
2013-11-25 22:50:00,54.2,47.8,30.19,NW,319,2.0,4.0,79,0.00,,,0.00,Wunderground v.1.15,2013-11-26 05:50:00,
2013-11-25 22:55:00,55.1,47.7,30.19,WNW,289,3.0,4.0,76,0.00,,,0.00,Wunderground v.1.15,2013-11-26 05:55:00,
2013-11-25 23:00:00,55.6,47.4,30.19,NNW,328,3.0,3.0,74,0.00,,,0.00,Wunderground v.1.15,2013-11-26 06:00:00,
2013-11-25 23:10:00,53.9,47.5,30.19,SW,214,3.0,3.0,79,0.00,,,0.00,Wunderground v.1.15,2013-11-26 06:10:00,
2013-11-25 23:15:00,53.5,47.8,30.19,WNW,283,2.0,2.0,81,0.00,,,0.00,Wunderground v.1.15,2013-11-26 06:15:00,
2013-11-25 23:24:00,53.4,46.4,30.20,ENE,63,1.0,1.0,77,0.00,,,0.00,Wunderground v.1.15,2013-11-26 06:24:00,
2013-11-25 23:34:00,51.4,46.7,30.20,SW,215,1.0,1.0,84,0.00,,,0.00,Wunderground v.1.15,2013-11-26 06:34:00,
2013-11-25 23:45:00,51.2,46.2,30.20,SE,127,0.0,0.0,83,0.00,,,0.00,Wunderground v.1.15,2013-11-26 06:45:00,
2013-11-25 23:55:00,51.2,46.8,30.20,NNE,25,0.0,2.0,85,0.00,,,0.00,Wunderground v.1.15,2013-11-26 06:55:00,